Latest Coastal Weather Observations for Gabo Island (VIC)

IDN60701

Issued at 8:21 am EST Friday 27 May 2016 (issued every 10 minutes, with the page automatically refreshed every 10 minutes)

About coastal observations | Map of coastal stations | Coastal observations for NSW | Marine services | Other Formats
Station Details ID: 084016 Name: GABO ISLAND LIGHTHOUSE Lat: -37.57 Lon: 149.92 Height: 15.2 m
Data from the previous 72 hours. | See also: Recent months at Gabo Island (VIC)
Date/Time
EST
Temp

°C
Wind Pressure Rain
since 9am
mm
Weather Cloud Vis
km
Sea
Height
m
Swell
Dir
 
Speed
knots
Gust
knots
hPa Trend Height
m
Period
s
Dir
27/08:01am 10.8 WSW 34 44 997.6 - 7.0 - - - - - - -
27/08:00am 10.7 WSW 35 44 997.6 - 7.0 - - - - - - -
27/07:31am 11.5 WSW 33 43 997.5 - 6.8 - - - - - - -
27/07:30am 11.4 WSW 34 43 997.5 - 6.8 - - - - - - -
27/07:13am 11.7 W 33 43 997.4 - 6.8 - - - - - - -
27/07:00am 11.5 WSW 34 41 997.2 - 6.8 - - - - - - -
27/06:30am 11.5 WSW 34 45 997.2 - 6.8 - - - - - - -
27/06:00am 11.8 WSW 32 44 997.1 - 6.8 - - - - - - -
27/05:33am 11.5 WSW 33 44 997.1 - 6.8 - - - - - - -
27/05:30am 11.6 WSW 33 42 997.2 - 6.8 - - - - - - -
27/05:00am 11.7 W 33 44 997.0 - 6.8 - - - - - - -
27/04:30am 11.6 W 35 47 997.0 - 6.8 - - - - - - -
27/04:00am 11.8 WSW 31 41 997.2 - 6.8 - - - - - - -
27/03:30am 11.7 WSW 32 44 997.2 - 6.6 - - - - - - -
27/03:00am 11.7 WSW 33 43 997.3 - 6.6 Fine Cloudy 10 3 1.0 - -
27/02:36am 11.7 W 32 42 997.2 - 6.6 - - - - - - -
27/02:30am 11.8 W 32 40 997.3 - 6.6 - - - - - - -
27/02:09am 11.7 W 33 44 997.4 - 6.6 - - - - - - -
27/02:00am 11.7 W 31 39 997.3 - 6.6 - - - - - - -
27/01:30am 12.1 W 32 45 997.2 - 6.6 - - - - - - -
27/01:11am 12.1 W 31 41 997.3 - 6.6 - - - - - - -
27/01:00am 12.0 W 31 39 997.3 - 6.6 - - - - - - -
27/12:43am 11.7 W 30 40 997.3 - 6.6 - - - - - - -
27/12:30am 11.8 W 30 38 997.5 - 6.6 - - - - - - -
27/12:01am 11.5 W 28 39 997.6 - 6.6 - - - - - - -
27/12:00am 11.6 W 28 35 997.6 - 6.6 - - - - - - -
 
Date/Time
EST
Temp

°C
Wind Pressure Rain
since 9am
mm
Weather Cloud Vis
km
Sea
Height
m
Swell
Dir
 
Speed
knots
Gust
knots
hPa Trend Height
m
Period
s
Dir
26/11:47pm 11.6 W 27 37 997.8 - 6.6 - - - - - - -
26/11:30pm 11.5 W 28 35 998.1 - 6.6 - - - - - - -
26/11:19pm 11.3 W 28 39 998.3 - 6.6 - - - - - - -
26/11:00pm 11.3 W 28 35 998.5 - 6.6 - - - - - - -
26/10:31pm 11.0 W 26 36 998.8 - 6.6 - - - - - - -
26/10:30pm 11.0 W 27 36 998.8 - 6.6 - - - - - - -
26/10:26pm 11.0 W 26 36 998.9 - 6.6 - - - - - - -
26/10:00pm 11.0 W 24 32 999.1 - 6.6 - - - - - - -
26/09:30pm 11.2 W 26 33 999.1 - 6.6 - - - - - - -
26/09:00pm 11.2 W 24 32 999.1 - 6.6 Fine Cloudy 30 1 1.0 - -
26/08:30pm 11.6 W 21 27 999.0 - 6.6 - - - - - - -
26/08:00pm 11.5 W 21 26 999.1 - 6.6 - - - - - - -
26/07:30pm 11.3 W 19 24 999.0 - 6.4 - - - - - - -
26/07:00pm 11.4 W 18 24 999.0 - 6.0 - - - - - - -
26/06:30pm 11.6 W 18 23 998.9 - 5.8 - - - - - - -
26/06:00pm 11.7 W 18 23 998.9 - 5.8 - - - - - - -
26/05:30pm 11.8 W 16 20 998.7 - 5.8 - - - - - - -
26/05:00pm 11.9 W 18 22 998.6 - 5.8 - - - - - - -
26/04:30pm 12.0 WSW 18 22 998.6 - 5.6 - - - - - - -
26/04:00pm 12.2 WSW 17 21 998.8 - 5.4 - - - - - - -
26/03:30pm 12.4 WSW 16 18 998.9 - 5.4 - - - - - - -
26/03:00pm 12.4 WSW 16 19 999.0 - 5.4 Fine Cloudy 30 1 1.0 - -
26/02:30pm 12.3 WSW 15 18 999.2 - 5.4 - - - - - - -
26/02:00pm 12.2 W 15 19 999.5 - 5.0 - - - - - - -
26/01:30pm 12.3 W 13 15 999.9 - 4.2 - - - - - - -
26/01:00pm 12.3 WNW 11 14 1000.2 - 3.4 - - - - - - -
26/12:30pm 12.5 WNW 10 13 1000.2 - 1.8 - - - - - - -
26/12:00pm 12.8 NW 6 9 1000.2 - 0.2 Recent precip. - - - - - -
26/11:30am 13.6 NW 6 9 1000.6 - 0.0 - - - - - - -
26/11:00am 14.0 WNW 6 8 1001.4 - 0.0 - - - - - - -
26/10:30am 14.1 NW 6 10 1002.0 - 0.0 - - - - - - -
26/10:00am 14.2 NW 6 7 1002.5 - 0.0 - - - - - - -
26/09:30am 14.3 NW 6 9 1003.0 - 0.0 - - - - - - -
26/09:00am 14.5 WNW 6 7 1003.3 - 0.0 Fine Cloudy 40 <0.5 1.0 - -
26/08:30am 14.8 N 3 4 1003.6 - 0.0 - - - - - - -
26/08:00am 14.5 NW 5 7 1003.5 - 0.0 - - - - - - -
26/07:30am 14.2 NW 4 5 1003.8 - 0.0 - - - - - - -
26/07:00am 14.2 NW 5 7 1004.1 - 0.0 - - - - - - -
26/06:30am 14.3 NNW 6 8 1004.3 - 0.0 - - - - - - -
26/06:00am 13.2 WNW 5 7 1004.8 - 0.0 - - - - - - -
26/05:30am 12.7 W 4 5 1005.0 - 0.0 - - - - - - -
26/05:00am 12.7 W 5 6 1005.1 - 0.0 - - - - - - -
26/04:30am 12.8 W 8 9 1005.5 - 0.0 - - - - - - -
26/04:00am 13.0 WNW 5 6 1005.6 - 0.0 - - - - - - -
26/03:30am 13.5 N 4 5 1005.6 - 0.0 - - - - - - -
26/03:00am 13.8 CALM 0 4 1006.4 - 0.0 - - - - - - -
26/02:30am 14.0 N 3 6 1007.1 - 0.0 - - - - - - -
26/02:00am 14.3 N 6 8 1007.5 - 0.0 - - - - - - -
26/01:30am 14.1 N 7 11 1008.1 - 0.0 - - - - - - -
26/01:00am 14.0 N 7 10 1008.5 - 0.0 - - - - - - -
26/12:30am 14.0 N 5 8 1008.7 - 0.0 - - - - - - -
26/12:00am 14.3 NNW 9 10 1008.9 - 0.0 - - - - - - -
 
Date/Time
EST
Temp

°C
Wind Pressure Rain
since 9am
mm
Weather Cloud Vis
km
Sea
Height
m
Swell
Dir
 
Speed
knots
Gust
knots
hPa Trend Height
m
Period
s
Dir
25/11:30pm 14.6 N 8 11 1009.3 - 0.0 - - - - - - -
25/11:00pm 13.7 N 5 6 1009.9 - 0.0 - - - - - - -
25/10:30pm 14.7 N 6 8 1010.4 - 0.0 - - - - - - -
25/10:00pm 14.9 N 12 14 1010.4 - 0.0 - - - - - - -
25/09:30pm 14.7 N 12 15 1010.8 - 0.0 - - - - - - -
25/09:00pm 13.6 N 5 5 1011.1 - 0.0 Fine Cloudy 30 1 1.0 - -
25/08:30pm 13.4 NNE 9 12 1011.1 - 0.0 - - - - - - -
25/08:00pm 13.8 N 9 12 1010.9 - 0.0 - - - - - - -
25/07:30pm 13.3 N 8 11 1011.2 - 0.0 - - - - - - -
25/07:00pm 13.0 N 8 10 1011.4 - 0.0 - - - - - - -
25/06:30pm 13.1 N 8 9 1011.6 - 0.0 - - - - - - -
25/06:00pm 13.4 N 8 9 1011.8 - 0.0 - - - - - - -
25/05:30pm 13.6 NNE 8 9 1012.0 - 0.0 - - - - - - -
25/05:00pm 13.7 N 6 9 1011.6 - 0.0 - - - - - - -
25/04:30pm 13.9 CALM 0 0 1011.7 - 0.0 - - - - - - -
25/04:00pm 14.4 SSW 2 4 1012.1 - 0.0 - - - - - - -
25/03:30pm 14.6 SSW 3 4 1012.1 - 0.0 - - - - - - -
25/03:00pm 15.1 SSW 4 5 1012.0 - 0.0 Fine Mostly cloudy 40 1 4.0 - -
25/02:30pm 14.7 SSW 7 9 1012.2 - 0.0 - - - - - - -
25/02:00pm 14.8 SSW 9 11 1012.3 - 0.0 - - - - - - -
25/01:30pm 14.2 SW 13 16 1012.7 - 0.0 - - - - - - -
25/01:00pm 14.2 SW 14 15 1013.0 - 0.0 - - - - - - -
25/12:30pm 14.4 SW 15 17 1013.2 - 0.0 - - - - - - -
25/12:00pm 14.4 SW 16 19 1013.6 - 0.0 - - - - - - -
25/11:30am 14.4 WSW 15 19 1014.2 - 0.0 - - - - - - -
25/11:00am 14.9 WSW 15 19 1014.7 - 0.0 - - - - - - -
25/10:30am 14.2 W 13 16 1015.3 - 0.0 - - - - - - -
25/10:00am 13.9 W 15 19 1015.2 - 0.0 - - - - - - -
25/09:30am 13.5 W 16 19 1015.2 - 0.0 - - - - - - -
25/09:00am 12.1 W 15 19 1015.4 - 4.6 Fine Partly cloudy 20 2 4.0 - -
25/08:30am 12.1 W 15 19 1015.7 - 4.6 - - - - - - -
25/08:00am 11.7 W 15 20 1015.8 - 4.6 - - - - - - -
25/07:30am 11.6 W 14 19 1016.0 - 4.6 - - - - - - -
25/07:00am 12.2 W 18 22 1015.8 - 4.6 - - - - - - -
25/06:30am 12.3 W 19 23 1015.5 - 4.6 - - - - - - -
25/06:00am 12.6 W 23 28 1014.9 - 4.6 - - - - - - -
25/05:30am 12.7 W 20 27 1014.5 - 4.6 - - - - - - -
25/05:00am 12.5 W 21 25 1014.8 - 4.6 - - - - - - -
25/04:30am 12.4 W 19 23 1014.8 - 4.6 - - - - - - -
25/04:00am 12.4 W 19 23 1014.5 - 4.6 - - - - - - -
25/03:30am 12.9 WSW 17 22 1014.5 - 4.6 - - - - - - -
25/03:00am 12.6 W 19 22 1014.6 - 4.6 Fine Mostly cloudy 20 3 4.0 - -
25/02:30am 12.4 W 20 26 1014.7 - 4.6 - - - - - - -
25/02:00am 12.4 W 21 27 1014.8 - 4.6 - - - - - - -
25/01:30am 12.4 W 20 26 1014.8 - 4.6 - - - - - - -
25/01:00am 12.9 WSW 20 26 1014.8 - 4.6 - - - - - - -
25/12:30am 12.9 WSW 19 24 1015.2 - 4.6 - - - - - - -
25/12:00am 12.9 WSW 24 29 1015.4 - 4.6 Recent precip. - - - - - -
 
Date/Time
EST
Temp

°C
Wind Pressure Rain
since 9am
mm
Weather Cloud Vis
km
Sea
Height
m
Swell
Dir
 
Speed
knots
Gust
knots
hPa Trend Height
m
Period
s
Dir
24/11:31pm 12.9 WSW 29 39 1015.3 - 4.6 - - - - - - -
24/11:30pm 12.9 WSW 29 37 1015.3 - 4.6 - - - - - - -
24/11:09pm 12.6 WSW 29 39 1015.5 - 4.6 - - - - - - -
24/11:00pm 12.2 WSW 31 40 1015.6 - 4.4 - - - - - - -
24/10:36pm 12.6 WSW 29 39 1015.6 - 4.4 - - - - - - -
24/10:30pm 12.4 WSW 29 36 1015.6 - 4.4 - - - - - - -
24/10:00pm 12.1 WSW 27 33 1015.6 - 4.4 - - - - - - -
24/09:53pm 12.1 WSW 28 36 1015.6 - 4.4 - - - - - - -
24/09:31pm 12.8 SW 32 42 1015.8 - 4.4 - - - - - - -
24/09:30pm 12.7 SW 33 42 1015.8 - 4.4 - - - - - - -
24/09:20pm 12.5 SW 36 41 1015.7 - 4.4 - - - - - - -
24/09:12pm 12.7 WSW 25 35 1015.8 - 3.8 - - - - - - -
24/09:00pm 12.4 WSW 26 32 1015.6 - 3.6 Distant precip. Mostly cloudy 20 5 4.0 - -
24/08:38pm 12.4 WSW 31 41 1015.6 - 3.6 - - - - - - -
24/08:30pm 12.5 WSW 32 40 1015.6 - 3.4 - - - - - - -
24/08:12pm 12.4 WSW 30 40 1015.4 - 3.2 - - - - - - -
24/08:00pm 12.5 WSW 34 41 1015.4 - 3.2 - - - - - - -
24/07:35pm 12.3 WSW 33 43 1015.4 - 3.2 - - - - - - -
24/07:30pm 12.2 SW 35 44 1015.5 - 3.2 - - - - - - -
24/07:19pm 12.9 SW 35 46 1015.2 - 3.2 - - - - - - -
24/07:00pm 12.5 WSW 32 39 1015.1 - 2.4 - - - - - - -
24/06:39pm 13.0 WSW 30 40 1015.0 - 2.0 - - - - - - -
24/06:30pm 12.6 WSW 30 39 1014.9 - 2.0 - - - - - - -
24/06:03pm 12.9 SW 35 49 1014.6 - 1.4 - - - - - - -
24/06:00pm 13.8 SW 33 41 1014.6 - 1.4 - - - - - - -
24/05:51pm 14.0 SW 31 41 1014.4 - 1.4 - - - - - - -
24/05:30pm 13.5 WSW 26 33 1014.2 - 1.4 - - - - - - -
24/05:00pm 13.1 WSW 29 36 1013.8 - 1.4 - - - - - - -
24/04:30pm 13.3 WSW 29 35 1013.7 - 1.4 - - - - - - -
24/04:00pm 13.2 WSW 30 37 1013.7 - 1.4 - - - - - - -
24/03:30pm 12.6 SW 32 40 1013.7 - 1.4 - - - - - - -
24/03:24pm 12.7 SW 27 39 1013.8 - 1.2 - - - - - - -
24/03:00pm 13.0 WSW 26 33 1013.5 - 0.6 Showers Mostly cloudy 5 3 4.0 - -
24/02:34pm 13.1 WSW 30 42 1013.4 - 0.4 - - - - - - -
24/02:30pm 13.7 WSW 29 36 1013.5 - 0.4 - - - - - - -
24/02:18pm 13.5 WSW 29 40 1013.1 - 0.4 - - - - - - -
24/02:00pm 13.6 WSW 28 34 1013.2 - 0.4 - - - - - - -
24/01:30pm 13.6 WSW 28 35 1013.3 - 0.4 - - - - - - -
24/01:02pm 13.0 WSW 29 39 1013.3 - 0.4 - - - - - - -
24/01:00pm 13.2 WSW 30 39 1013.3 - 0.4 - - - - - - -
24/12:31pm 12.8 WSW 31 41 1013.3 - 0.2 - - - - - - -
24/12:30pm 12.8 WSW 32 41 1013.3 - 0.2 - - - - - - -
24/12:00pm 14.3 WSW 29 40 1013.5 - 0.0 - - - - - - -
24/11:41am 14.9 WSW 31 41 1013.2 - 0.0 - - - - - - -
24/11:30am 14.6 WSW 32 40 1013.4 - 0.0 - - - - - - -
24/11:04am 14.4 WSW 33 43 1013.6 - 0.0 - - - - - - -
24/11:00am 14.6 WSW 32 40 1013.8 - 0.0 - - - - - - -
24/10:44am 14.8 WSW 32 42 1013.8 - 0.0 - - - - - - -
24/10:30am 14.7 WSW 32 40 1013.9 - 0.0 - - - - - - -
24/10:10am 14.6 WSW 31 41 1013.9 - 0.0 - - - - - - -
24/10:00am 14.9 WSW 29 36 1014.0 - 0.0 - - - - - - -
24/09:36am 14.1 W 29 40 1013.9 - 0.0 - - - - - - -
24/09:30am 14.0 WSW 28 35 1014.0 - 0.0 - - - - - - -
24/09:12am 13.9 WSW 27 37 1014.1 - 0.0 - - - - - - -
24/09:00am 13.6 W 28 35 1014.0 - 2.2 Distant precip. Mostly clear 30 3 4.0 - -
24/08:32am 13.3 W 26 36 1014.1 - 2.2 - - - - - - -
24/08:30am 13.4 W 26 33 1014.0 - 2.2 - - - - - - -

Other Formats:

Comma delimited format used in spreadsheet applications
http://www.bom.gov.au/fwo/IDN60701/IDN60701.94933.axf

JavaScript Object Notation format (JSON) in row-major order
http://www.bom.gov.au/fwo/IDN60701/IDN60701.94933.json